Time;durP1;ratioP1;P1;durP2;ratioP2;P2;SDS_P1;SDS_P2;PMS_P1;PMS_P2;Temp;Humidity;BMP_temperature;BMP_pressure;BME280_temperature;BME280_humidity;BME280_pressure;Samples;Min_cycle;Max_cycle;Signal;HPM_P1;HPM_P2
2022/07/24 00:01:34;;;;;;;;;23.33;21.67;;;;;23.92;50.66;101436.38;4936077;28;45135;-62
2022/07/24 00:03:59;;;;;;;;;23.67;19.67;;;;;24.32;50.65;101513.94;4935891;28;45619;-62
2022/07/24 00:06:25;;;;;;;;;24.67;18.33;;;;;24.19;50.82;101486.88;4940990;28;45045;-62
2022/07/24 00:08:50;;;;;;;;;20.75;18.50;;;;;24.32;50.73;101514.84;4935353;28;45017;-62
2022/07/24 00:11:16;;;;;;;;;17.33;17.33;;;;;24.30;51.11;101516.69;4939094;28;45199;-64
2022/07/24 00:13:42;;;;;;;;;19.33;17.00;;;;;24.24;50.37;101514.09;4939407;28;45619;-62
2022/07/24 00:16:08;;;;;;;;;21.67;16.67;;;;;24.23;50.89;101517.75;4938453;28;44984;-62
2022/07/24 00:18:34;;;;;;;;;19.67;17.67;;;;;24.06;51.20;101502.56;4949762;28;45031;-62
2022/07/24 00:20:59;;;;;;;;;23.67;19.00;;;;;24.13;51.29;101521.56;4936320;28;45177;-63
2022/07/24 00:23:25;;;;;;;;;22.00;20.67;;;;;24.08;51.15;101521.66;4935410;28;45950;-62
2022/07/24 00:25:51;;;;;;;;;23.00;19.00;;;;;24.09;51.33;101523.47;4935748;28;44940;-62
2022/07/24 00:28:17;;;;;;;;;20.33;16.67;;;;;24.06;51.35;101516.22;4939694;28;45073;-61
2022/07/24 00:30:42;;;;;;;;;24.33;18.00;;;;;24.04;51.45;101522.59;4943083;28;45087;-62
2022/07/24 00:33:08;;;;;;;;;24.67;18.00;;;;;24.02;51.46;101513.56;4942562;28;45488;-63
2022/07/24 00:35:33;;;;;;;;;24.33;19.33;;;;;23.95;51.45;101510.03;4935405;28;45141;-61
2022/07/24 00:37:59;;;;;;;;;16.67;16.67;;;;;23.89;51.64;101505.59;4935791;28;45154;-63
2022/07/24 00:40:24;;;;;;;;;22.33;19.33;;;;;23.81;51.48;101485.69;4946861;28;45257;-62
2022/07/24 00:42:51;;;;;;;;;20.67;16.67;;;;;23.80;51.57;101489.31;4935009;28;46063;-62
2022/07/24 00:45:16;;;;;;;;;19.33;15.67;;;;;23.81;51.69;101485.69;4936295;28;45003;-61
2022/07/24 00:47:42;;;;;;;;;19.00;17.33;;;;;23.82;51.89;101483.84;4935417;28;45243;-62
2022/07/24 00:50:07;;;;;;;;;17.33;16.33;;;;;23.83;51.90;101474.78;4934660;28;45006;-62
2022/07/24 00:52:33;;;;;;;;;14.00;14.00;;;;;23.81;52.15;101474.78;4934928;28;45741;-64
2022/07/24 00:54:59;;;;;;;;;17.67;17.67;;;;;23.75;51.71;101472.13;4936369;28;45171;-63
2022/07/24 00:57:24;;;;;;;;;16.00;16.00;;;;;23.57;52.30;101447.91;4937376;28;45068;-62
2022/07/24 00:59:49;;;;;;;;;22.33;16.33;;;;;23.66;52.24;101467.75;4926441;28;45116;-63
2022/07/24 01:02:15;;;;;;;;;20.33;16.67;;;;;23.70;52.36;101466.75;4938176;28;45221;-62
2022/07/24 01:04:40;;;;;;;;;12.00;11.33;;;;;23.73;52.07;101466.69;4934855;28;45035;-61
2022/07/24 01:07:07;;;;;;;;;16.33;15.67;;;;;23.72;52.03;101453.09;4935144;28;45487;-64
2022/07/24 01:09:33;;;;;;;;;17.67;16.00;;;;;23.69;52.11;101459.50;4935172;28;45095;-60
2022/07/24 01:11:58;;;;;;;;;15.00;10.67;;;;;23.65;52.24;101460.47;4934836;28;45479;-63
2022/07/24 01:14:24;;;;;;;;;16.00;16.00;;;;;23.64;52.40;101465.94;4935132;28;44976;-62
2022/07/24 01:16:49;;;;;;;;;18.67;17.33;;;;;23.18;52.34;101394.88;4939759;28;45000;-62
2022/07/24 01:19:15;;;;;;;;;20.33;18.33;;;;;23.60;52.08;101462.38;4943274;28;45094;-62
2022/07/24 01:21:46;;;;;;;;;18.00;18.00;;;;;23.59;52.34;101465.13;4934352;28;46418;-63
2022/07/24 01:24:12;;;;;;;;;18.00;15.67;;;;;23.61;52.06;101472.38;4934163;28;45168;-62
2022/07/24 01:26:37;;;;;;;;;14.67;14.33;;;;;23.59;52.20;101465.13;4934414;28;45000;-62
2022/07/24 01:29:02;;;;;;;;;21.33;16.00;;;;;23.59;52.17;101471.47;4925535;28;45278;-62
2022/07/24 01:31:28;;;;;;;;;16.33;16.33;;;;;23.61;52.07;101480.56;4940766;28;45732;-62
2022/07/24 01:33:53;;;;;;;;;17.33;15.00;;;;;23.61;52.14;101475.09;4937012;28;44925;-62
2022/07/24 01:36:19;;;;;;;;;18.00;17.00;;;;;23.58;51.83;101472.41;4942934;28;45522;-61
2022/07/24 01:38:44;;;;;;;;;13.67;13.67;;;;;23.57;51.91;101473.34;4934763;28;45126;-62
2022/07/24 01:41:09;;;;;;;;;22.00;18.33;;;;;23.59;52.03;101476.94;4944655;28;45128;-62
2022/07/24 01:43:34;;;;;;;;;19.00;17.33;;;;;23.55;52.17;101469.75;4934074;28;45013;-62
2022/07/24 01:46:00;;;;;;;;;18.33;14.00;;;;;23.51;52.19;101474.34;4934521;28;45114;-63
2022/07/24 01:48:25;;;;;;;;;18.33;16.00;;;;;23.49;52.21;101469.81;4935306;28;45042;-62
2022/07/24 01:50:51;;;;;;;;;16.33;15.67;;;;;23.47;52.53;101464.38;4934632;28;46498;-62
2022/07/24 01:53:16;;;;;;;;;21.67;18.33;;;;;23.47;52.59;101463.50;4949786;28;45243;-63
2022/07/24 01:55:41;;;;;;;;;19.33;17.33;;;;;23.37;52.54;101455.44;4937079;28;44889;-63
2022/07/24 01:58:07;;;;;;;;;16.00;16.00;;;;;23.33;52.49;101442.81;4934883;28;45051;-63
2022/07/24 02:00:32;;;;;;;;;15.67;13.67;;;;;23.47;52.60;101466.22;4933554;28;49747;-63
2022/07/24 02:02:57;;;;;;;;;16.33;15.00;;;;;23.47;52.54;101467.13;4933899;28;45165;-63
2022/07/24 02:05:23;;;;;;;;;18.00;16.33;;;;;23.47;52.43;101460.78;4938231;28;45079;-61
2022/07/24 02:07:57;;;;;;;;;20.00;16.67;;;;;23.44;52.84;101466.28;4935243;28;45159;-63
2022/07/24 02:10:23;;;;;;;;;16.67;16.67;;;;;23.37;52.52;101449.09;4939730;28;46195;-63
2022/07/24 02:12:49;;;;;;;;;19.33;16.67;;;;;23.42;52.96;101468.13;4933690;28;45176;-62
2022/07/24 02:15:14;;;;;;;;;16.67;16.67;;;;;23.42;52.70;101462.69;4933914;28;45048;-62
2022/07/24 02:17:45;;;;;;;;;20.00;17.67;;;;;23.08;52.73;101400.47;4945394;28;45131;-63
2022/07/24 02:20:10;;;;;;;;;14.33;14.33;;;;;23.35;52.53;101459.16;4942224;28;45852;-62
2022/07/24 02:22:36;;;;;;;;;15.00;14.33;;;;;23.35;52.46;101454.59;4933866;28;45086;-63
2022/07/24 02:25:02;;;;;;;;;16.33;14.67;;;;;23.27;52.63;101433.81;4942958;28;45096;-63
2022/07/24 02:27:27;;;;;;;;;19.00;18.67;;;;;23.33;52.55;101439.19;4933565;28;45166;-62
2022/07/24 02:29:52;;;;;;;;;14.33;13.00;;;;;23.30;53.07;101441.97;4933239;28;45726;-62
2022/07/24 02:32:18;;;;;;;;;11.67;11.00;;;;;23.30;52.83;101436.50;4933598;28;49741;-63
2022/07/24 02:34:43;;;;;;;;;15.50;15.50;;;;;23.24;52.58;101434.75;4934149;28;44978;-63
2022/07/24 02:37:08;;;;;;;;;14.67;12.33;;;;;23.21;52.54;101437.53;4938212;28;44979;-63
2022/07/24 02:39:34;;;;;;;;;15.33;13.67;;;;;23.07;52.23;101424.13;4943209;28;45595;-62
2022/07/24 02:41:59;;;;;;;;;17.67;14.67;;;;;22.97;52.29;101406.97;4946081;28;45285;-62
2022/07/24 02:44:24;;;;;;;;;12.67;11.67;;;;;23.05;52.50;101414.09;4931339;28;44958;-63
2022/07/24 02:46:50;;;;;;;;;13.33;12.00;;;;;23.09;51.91;101414.09;4932087;28;45243;-63
2022/07/24 02:49:15;;;;;;;;;14.00;12.67;;;;;23.18;51.99;101429.38;4930599;28;45602;-64
2022/07/24 02:51:40;;;;;;;;;15.00;12.00;;;;;23.20;51.50;101424.84;4932988;28;45484;-62
2022/07/24 02:54:06;;;;;;;;;15.33;11.33;;;;;23.18;51.39;101422.13;4946989;28;45134;-63
2022/07/24 02:56:31;;;;;;;;;11.67;10.33;;;;;23.20;51.14;101422.13;4941598;28;45080;-62
2022/07/24 02:58:56;;;;;;;;;11.67;11.00;;;;;23.21;51.15;101417.56;4946247;28;45595;-62
2022/07/24 03:01:22;;;;;;;;;15.00;11.33;;;;;23.06;50.84;101391.41;4933395;28;44940;-63
2022/07/24 03:03:47;;;;;;;;;13.00;13.00;;;;;23.16;51.08;101412.16;4933265;28;45280;-62
2022/07/24 03:06:12;;;;;;;;;14.33;13.00;;;;;23.21;50.73;101410.25;4933417;28;45131;-62
2022/07/24 03:08:38;;;;;;;;;13.00;10.67;;;;;23.23;50.71;101410.25;4933132;28;45715;-63
2022/07/24 03:11:03;;;;;;;;;14.33;11.33;;;;;22.96;50.84;101358.81;4931847;28;45123;-62
2022/07/24 03:13:28;;;;;;;;;11.00;10.33;;;;;23.25;50.59;101408.41;4936757;28;45315;-63
2022/07/24 03:15:54;;;;;;;;;15.00;13.00;;;;;23.25;50.73;101409.31;4937774;28;44870;-64
2022/07/24 03:18:19;;;;;;;;;12.67;10.67;;;;;23.13;50.79;101388.59;4947405;28;45166;-63
2022/07/24 03:20:45;;;;;;;;;12.33;11.33;;;;;23.27;50.73;101401.09;4936728;28;45108;-63
2022/07/24 03:23:10;;;;;;;;;10.33;10.33;;;;;23.08;51.10;101371.41;4937218;28;45118;-63
2022/07/24 03:25:35;;;;;;;;;15.33;13.00;;;;;23.27;51.01;101407.44;4937138;28;44922;-62
2022/07/24 03:28:01;;;;;;;;;14.33;12.33;;;;;23.11;50.94;101384.97;4946976;28;45877;-63
2022/07/24 03:30:26;;;;;;;;;15.67;15.00;;;;;23.28;51.00;101409.25;4940626;28;45080;-63
2022/07/24 03:32:51;;;;;;;;;14.33;14.00;;;;;23.10;51.35;101387.72;4945062;28;44938;-63
2022/07/24 03:35:16;;;;;;;;;14.67;13.33;;;;;23.25;51.43;101417.47;4937128;28;45031;-63
2022/07/24 03:37:42;;;;;;;;;17.00;15.33;;;;;23.28;51.21;101413.78;4938275;28;45437;-63
2022/07/24 03:40:08;;;;;;;;;14.00;14.00;;;;;22.86;51.21;101343.53;4936563;28;45006;-62
2022/07/24 03:42:34;;;;;;;;;16.00;14.33;;;;;23.27;51.32;101412.00;4941891;28;45070;-63
2022/07/24 03:44:59;;;;;;;;;15.33;13.67;;;;;23.29;51.45;101411.03;4942992;28;45221;-62
2022/07/24 03:47:25;;;;;;;;;17.00;13.33;;;;;23.26;51.43;101399.28;4939947;28;45125;-62
2022/07/24 03:49:50;;;;;;;;;19.33;14.33;;;;;23.25;51.36;101401.13;4944953;28;45063;-63
2022/07/24 03:52:16;;;;;;;;;16.67;14.33;;;;;23.25;51.43;101408.41;4932172;28;45115;-62
2022/07/24 03:54:41;;;;;;;;;14.00;13.67;;;;;23.08;51.28;101381.41;4945485;28;45091;-63
2022/07/24 03:57:06;;;;;;;;;16.00;14.33;;;;;23.15;51.43;101397.63;4932060;28;46485;-62
2022/07/24 03:59:32;;;;;;;;;14.00;13.00;;;;;23.16;51.38;101394.00;4936164;28;45013;-63
2022/07/24 04:01:58;;;;;;;;;14.67;11.67;;;;;23.18;51.34;101396.69;4936675;28;45304;-62
2022/07/24 04:04:23;;;;;;;;;16.33;13.67;;;;;23.19;51.25;101401.22;4940843;28;44945;-63
2022/07/24 04:06:48;;;;;;;;;13.67;12.67;;;;;23.10;51.35;101404.06;4945052;28;45174;-62
2022/07/24 04:09:14;;;;;;;;;14.00;11.67;;;;;22.98;51.56;101400.59;4935770;28;47853;-63
2022/07/24 04:11:39;;;;;;;;;13.67;13.00;;;;;23.04;51.22;101401.44;4936079;28;44901;-62
2022/07/24 04:14:05;;;;;;;;;11.33;10.33;;;;;22.96;51.31;101409.69;4942253;28;45022;-62
2022/07/24 04:16:31;;;;;;;;;12.00;11.33;;;;;22.92;51.49;101405.25;4937586;28;45133;-63
2022/07/24 04:18:56;;;;;;;;;14.00;9.33;;;;;22.94;51.53;101408.84;4946509;28;45110;-63
2022/07/24 04:21:21;;;;;;;;;16.33;13.00;;;;;22.96;51.52;101410.59;4939883;28;45011;-62
2022/07/24 04:23:47;;;;;;;;;12.33;11.67;;;;;22.95;51.54;101400.63;4936528;28;45131;-63
2022/07/24 04:26:12;;;;;;;;;10.33;7.33;;;;;22.99;51.31;101401.50;4935665;28;45617;-62
2022/07/24 04:28:38;;;;;;;;;14.33;11.67;;;;;23.00;51.72;101412.38;4934876;28;45096;-62
2022/07/24 04:31:04;;;;;;;;;12.67;12.67;;;;;23.02;51.81;101406.91;4934646;28;46445;-62
2022/07/24 04:33:29;;;;;;;;;15.33;13.00;;;;;23.02;51.94;101406.91;4935514;28;45116;-62
2022/07/24 04:35:54;;;;;;;;;17.00;14.33;;;;;22.77;52.22;101379.13;4940212;28;45651;-62
2022/07/24 04:38:20;;;;;;;;;12.33;12.33;;;;;22.90;52.31;101418.88;4939859;28;45090;-62
2022/07/24 04:40:45;;;;;;;;;17.33;12.67;;;;;22.89;52.10;101411.63;4935776;28;45249;-62
2022/07/24 04:43:10;;;;;;;;;15.67;13.00;;;;;22.86;52.41;101416.22;4946783;28;45013;-63
2022/07/24 04:45:36;;;;;;;;;14.67;13.00;;;;;22.85;52.34;101412.59;4936395;28;45090;-63
2022/07/24 04:48:02;;;;;;;;;24.00;13.33;;;;;22.62;52.27;101370.22;4934129;28;45206;-62
2022/07/24 04:50:27;;;;;;;;;16.33;15.67;;;;;22.80;52.53;101407.22;4934053;28;45164;-62
2022/07/24 04:52:53;;;;;;;;;15.67;14.00;;;;;22.70;53.03;101410.06;4942170;28;47466;-62
2022/07/24 04:55:18;;;;;;;;;11.00;11.00;;;;;22.86;52.56;101400.75;4941525;28;45072;-62
2022/07/24 04:57:43;;;;;;;;;15.00;12.67;;;;;22.77;52.42;101380.00;4935055;28;45099;-62
2022/07/24 05:00:11;;;;;;;;;15.00;13.00;;;;;22.95;52.29;101406.09;4936516;28;45127;-63
2022/07/24 05:02:36;;;;;;;;;20.33;13.67;;;;;22.91;52.35;101406.16;4935114;28;44981;-63
2022/07/24 05:05:02;;;;;;;;;14.67;10.33;;;;;22.77;52.26;101385.44;4934738;28;44955;-64
2022/07/24 05:07:28;;;;;;;;;14.50;13.00;;;;;22.96;52.05;101401.53;4934731;28;45133;-63
2022/07/24 05:09:53;;;;;;;;;16.67;13.67;;;;;22.84;52.00;101374.47;4946030;28;45212;-63
2022/07/24 05:12:18;;;;;;;;;17.00;14.33;;;;;23.02;51.91;101412.34;4939655;28;45225;-62
2022/07/24 05:14:44;;;;;;;;;14.33;10.00;;;;;23.08;51.84;101406.84;4932737;28;44985;-62
2022/07/24 05:17:09;;;;;;;;;12.33;12.33;;;;;22.50;51.65;101306.84;4948087;28;45170;-63
2022/07/24 05:19:35;;;;;;;;;16.33;14.33;;;;;23.11;51.83;101412.22;4946315;28;45331;-62
2022/07/24 05:22:00;;;;;;;;;16.67;14.67;;;;;23.03;52.00;101410.50;4934772;28;45314;-62
2022/07/24 05:24:26;;;;;;;;;17.33;14.00;;;;;22.91;52.34;101398.88;4934518;28;45238;-62
2022/07/24 05:26:52;;;;;;;;;17.00;13.67;;;;;22.97;52.54;101411.53;4938978;28;45043;-61
2022/07/24 05:29:18;;;;;;;;;16.67;15.67;;;;;22.95;52.49;101417.00;4935025;28;44905;-63
2022/07/24 05:31:43;;;;;;;;;17.67;14.33;;;;;22.94;52.36;101403.38;4935262;28;45234;-61
2022/07/24 05:34:09;;;;;;;;;16.00;13.67;;;;;22.75;52.54;101372.75;4934929;28;45013;-63
2022/07/24 05:36:35;;;;;;;;;16.00;15.00;;;;;22.97;52.48;101411.53;4938028;28;45110;-63
2022/07/24 05:39:00;;;;;;;;;20.00;16.00;;;;;22.84;52.45;101388.09;4934129;28;45241;-63
2022/07/24 05:41:25;;;;;;;;;17.00;16.00;;;;;22.95;52.57;101408.81;4934842;28;45159;-63
2022/07/24 05:43:51;;;;;;;;;17.00;13.67;;;;;23.00;52.51;101411.47;4947314;28;45727;-62
2022/07/24 05:46:16;;;;;;;;;16.00;11.67;;;;;23.03;51.88;101408.69;4932858;28;45080;-63
2022/07/24 05:48:45;;;;;;;;;14.33;14.00;;;;;23.00;52.00;101404.19;4933848;28;44989;-61
2022/07/24 05:51:10;;;;;;;;;16.00;12.00;;;;;22.97;51.93;101406.06;4943949;28;45111;-63
2022/07/24 05:53:35;;;;;;;;;19.67;16.67;;;;;22.92;51.55;101389.78;4939290;28;48123;-61
2022/07/24 05:56:00;;;;;;;;;23.67;14.67;;;;;23.04;51.53;101412.31;4934565;28;45027;-62
2022/07/24 05:58:26;;;;;;;;;23.67;14.00;;;;;23.03;51.54;101403.22;4934068;28;44965;-61
2022/07/24 06:00:51;;;;;;;;;18.33;13.67;;;;;23.04;51.63;101398.69;4944868;28;45110;-62
2022/07/24 06:03:16;;;;;;;;;15.00;15.00;;;;;23.13;51.38;101407.69;4939549;28;45451;-62
2022/07/24 06:05:42;;;;;;;;;15.00;14.00;;;;;23.21;51.44;101414.81;4936616;28;46808;-62
2022/07/24 06:08:08;;;;;;;;;15.00;13.33;;;;;23.28;51.09;101412.00;4936032;28;45136;-63
2022/07/24 06:10:34;;;;;;;;;15.33;15.00;;;;;23.32;51.46;101410.09;4932881;28;44953;-62
2022/07/24 06:12:59;;;;;;;;;14.00;13.33;;;;;23.21;51.45;101390.28;4934106;28;46177;-63
2022/07/24 06:15:25;;;;;;;;;16.33;13.33;;;;;23.24;51.48;101402.03;4941536;28;45009;-62
2022/07/24 06:17:50;;;;;;;;;17.67;13.67;;;;;23.26;51.68;101405.63;4931825;28;45212;-62
2022/07/24 06:20:16;;;;;;;;;18.67;14.67;;;;;23.30;51.58;101395.59;4938927;28;45192;-62
2022/07/24 06:22:44;;;;;;;;;14.33;14.33;;;;;23.33;51.30;101401.00;4934018;28;45337;-62
2022/07/24 06:25:10;;;;;;;;;16.00;14.67;;;;;23.41;51.66;101403.59;4938347;28;45004;-62
2022/07/24 06:27:46;;;;;;;;;20.00;14.67;;;;;23.44;51.61;101398.09;4934403;28;45203;-62
2022/07/24 06:30:16;;;;;;;;;17.00;12.67;;;;;23.44;51.55;101398.97;4934450;28;45131;-62
2022/07/24 06:32:42;;;;;;;;;17.33;14.33;;;;;23.36;51.56;101401.84;4934072;28;45502;-61
2022/07/24 06:35:07;;;;;;;;;16.67;14.33;;;;;23.33;52.08;101396.44;4941111;28;45146;-62
2022/07/24 06:37:33;;;;;;;;;14.67;14.67;;;;;23.41;52.00;101392.69;4944752;28;45010;-61
2022/07/24 06:39:58;;;;;;;;;19.67;16.67;;;;;23.45;51.74;101387.16;4934485;28;45038;-62
2022/07/24 06:42:24;;;;;;;;;16.00;14.33;;;;;23.49;51.72;101390.72;4932484;28;45044;-63
2022/07/24 06:44:49;;;;;;;;;13.33;13.33;;;;;23.50;52.04;101384.38;4931843;28;50283;-61
2022/07/24 06:47:14;;;;;;;;;20.00;13.00;;;;;23.48;51.84;101375.31;4941570;28;45880;-61
2022/07/24 06:49:39;;;;;;;;;15.00;12.33;;;;;23.64;51.55;101382.31;4941578;28;45315;-60
2022/07/24 06:52:05;;;;;;;;;21.67;18.00;;;;;23.70;51.67;101386.75;4940240;28;45584;-62
2022/07/24 06:54:30;;;;;;;;;18.67;17.67;;;;;23.69;51.70;101379.47;4941451;28;46520;-62
2022/07/24 06:56:56;;;;;;;;;16.67;15.00;;;;;23.67;51.72;101379.50;4936051;28;45106;-61
2022/07/24 06:59:21;;;;;;;;;17.33;14.67;;;;;23.33;51.86;101311.03;4936357;28;45523;-62
2022/07/24 07:01:47;;;;;;;;;20.00;18.00;;;;;23.64;51.76;101360.47;4934500;28;45679;-61
2022/07/24 07:04:12;;;;;;;;;19.67;17.33;;;;;23.88;51.71;101380.97;4944177;28;45207;-62
2022/07/24 07:06:37;;;;;;;;;15.67;15.33;;;;;24.01;51.46;101373.44;4935134;28;45160;-62
2022/07/24 07:09:03;;;;;;;;;17.67;15.67;;;;;24.12;50.85;101375.94;4935166;28;44899;-62
2022/07/24 07:11:28;;;;;;;;;19.33;17.33;;;;;24.13;51.21;101371.41;4941479;28;45931;-63
2022/07/24 07:13:53;;;;;;;;;12.33;12.00;;;;;23.98;50.49;101328.94;4936683;28;45060;-63
2022/07/24 07:16:19;;;;;;;;;23.00;18.00;;;;;24.33;50.47;101382.81;4937099;28;45207;-63
2022/07/24 07:18:44;;;;;;;;;15.67;13.67;;;;;24.41;50.09;101383.56;4949065;28;44966;-62
2022/07/24 07:21:10;;;;;;;;;15.67;15.67;;;;;24.46;50.51;101380.72;4936320;28;45047;-61
2022/07/24 07:23:35;;;;;;;;;20.00;15.33;;;;;24.56;49.94;101378.75;4940357;28;45258;-62
2022/07/24 07:26:01;;;;;;;;;20.33;16.00;;;;;24.24;49.78;101315.66;4936319;28;45056;-64
2022/07/24 07:28:26;;;;;;;;;15.67;14.33;;;;;24.72;49.47;101380.19;4949979;28;45192;-62
2022/07/24 07:30:52;;;;;;;;;17.33;16.00;;;;;24.62;49.72;101354.91;4936369;28;45813;-63
2022/07/24 07:33:17;;;;;;;;;16.67;16.33;;;;;24.82;49.75;101384.50;4951856;28;45318;-64
2022/07/24 07:35:43;;;;;;;;;28.00;19.67;;;;;24.81;49.76;101379.09;4936331;28;45060;-63
2022/07/24 07:38:08;;;;;;;;;19.33;19.33;;;;;24.69;49.89;101355.69;4936391;28;45050;-63
2022/07/24 07:40:33;;;;;;;;;20.33;20.33;;;;;24.93;49.91;101372.44;4944526;28;45165;-63
2022/07/24 07:42:59;;;;;;;;;18.33;18.33;;;;;24.98;49.77;101371.41;4935672;28;45007;-63
2022/07/24 07:45:24;;;;;;;;;18.33;17.67;;;;;25.02;49.35;101372.22;4937883;28;45245;-63
2022/07/24 07:47:49;;;;;;;;;20.67;19.33;;;;;25.15;49.29;101379.19;4935721;28;44985;-63
2022/07/24 07:50:14;;;;;;;;;17.33;16.67;;;;;24.71;49.07;101301.00;4935253;28;45568;-64
2022/07/24 07:52:40;;;;;;;;;21.00;19.00;;;;;25.19;48.90;101364.53;4935143;28;45053;-65
2022/07/24 07:55:06;;;;;;;;;21.00;18.00;;;;;25.30;49.06;101383.41;4943155;28;45045;-63
2022/07/24 07:57:32;;;;;;;;;22.67;21.67;;;;;25.42;49.04;101376.75;4935233;28;45184;-63
2022/07/24 07:59:57;;;;;;;;;22.00;19.00;;;;;25.09;48.65;101290.94;4935431;28;45575;-64
2022/07/24 08:02:22;;;;;;;;;23.67;19.33;;;;;25.64;48.87;101360.69;4939744;28;44964;-61
2022/07/24 08:04:48;;;;;;;;;19.00;17.33;;;;;25.74;48.53;101359.47;4949671;28;49278;-62
2022/07/24 08:07:13;;;;;;;;;16.33;16.33;;;;;25.84;48.20;101359.25;4950437;28;44943;-61
2022/07/24 08:09:39;;;;;;;;;20.33;18.33;;;;;25.90;48.03;101356.31;4947513;28;45153;-62
2022/07/24 08:12:04;;;;;;;;;16.67;16.33;;;;;25.97;47.90;101358.00;4950007;28;45118;-61
2022/07/24 08:14:30;;;;;;;;;17.00;16.33;;;;;25.90;47.56;101331.69;4937424;28;45126;-61
2022/07/24 08:16:55;;;;;;;;;17.00;15.67;;;;;26.10;47.61;101344.81;4928454;28;45067;-61
2022/07/24 08:19:21;;;;;;;;;18.00;17.00;;;;;26.18;47.05;101347.34;4946602;28;45641;-62
2022/07/24 08:21:46;;;;;;;;;22.33;20.00;;;;;26.24;47.11;101349.94;4938246;28;45254;-64
2022/07/24 08:24:12;;;;;;;;;25.67;20.33;;;;;26.31;47.00;101348.78;4935383;28;45097;-62
2022/07/24 08:26:38;;;;;;;;;23.33;20.00;;;;;26.40;46.80;101351.25;4935314;28;45104;-61
2022/07/24 08:29:03;;;;;;;;;21.67;19.00;;;;;26.47;46.73;101339.16;4940707;28;45466;-61
2022/07/24 08:31:29;;;;;;;;;17.67;15.33;;;;;26.59;46.24;101348.84;4952814;28;45661;-62
2022/07/24 08:33:54;;;;;;;;;18.33;16.67;;;;;26.65;46.33;101345.06;4947317;28;45007;-62
2022/07/24 08:36:20;;;;;;;;;19.33;17.00;;;;;26.74;45.69;101338.38;4940316;28;45077;-63
2022/07/24 08:38:45;;;;;;;;;19.00;18.00;;;;;26.87;45.56;101348.00;4936282;28;45202;-61
2022/07/24 08:41:12;;;;;;;;;19.00;17.67;;;;;26.97;45.20;101338.53;4933583;28;45013;-62
2022/07/24 08:43:38;;;;;;;;;18.00;16.67;;;;;27.10;44.72;101332.66;4947458;28;45218;-62
2022/07/24 08:46:04;;;;;;;;;19.33;17.33;;;;;27.19;44.85;101340.56;4942448;28;45159;-61
2022/07/24 08:48:30;;;;;;;;;20.67;18.00;;;;;27.26;44.03;101339.44;4941978;28;45906;-61
2022/07/24 08:50:58;;;;;;;;;22.67;18.33;;;;;27.31;43.92;101326.47;4933419;28;45080;-62
2022/07/24 08:53:23;;;;;;;;;20.00;17.00;;;;;27.35;43.06;101321.78;4934758;28;45052;-62
2022/07/24 08:55:49;;;;;;;;;15.67;15.67;;;;;27.51;42.61;101323.03;4937732;28;45514;-62
2022/07/24 08:58:14;;;;;;;;;16.67;16.67;;;;;27.60;43.29;101321.81;4947816;28;46163;-62
2022/07/24 09:00:41;;;;;;;;;27.00;20.67;;;;;27.56;43.12;101309.16;4943922;28;45256;-61
2022/07/24 09:03:06;;;;;;;;;19.67;14.33;;;;;27.71;42.56;101314.09;4939067;28;45229;-63
2022/07/24 09:05:34;;;;;;;;;12.67;12.67;;;;;27.78;41.27;101314.75;4937505;28;44999;-62
2022/07/24 09:08:10;;;;;;;;;17.67;13.67;;;;;27.72;42.01;101290.31;4932796;28;46454;-63
2022/07/24 09:10:36;;;;;;;;;15.33;13.33;;;;;27.83;40.28;101282.53;4941500;28;45214;-62
2022/07/24 09:13:14;;;;;;;;;15.00;14.00;;;;;27.98;40.79;101293.94;4951710;28;45000;-62
2022/07/24 09:15:47;;;;;;;;;18.00;16.00;;;;;28.07;40.01;101299.09;4948763;28;45102;-63
2022/07/24 09:18:34;;;;;;;;;14.00;12.00;;;;;28.18;39.77;101296.84;4955349;28;45411;-62
2022/07/24 09:21:13;;;;;;;;;13.33;12.33;;;;;28.27;39.00;101290.09;4947280;28;45029;-63
2022/07/24 09:23:39;;;;;;;;;11.67;11.67;;;;;28.13;38.80;101247.56;4932376;28;45543;-62
2022/07/24 09:26:04;;;;;;;;;11.67;11.67;;;;;28.38;37.23;101290.56;4931305;28;45436;-61
2022/07/24 09:28:46;;;;;;;;;13.33;11.67;;;;;28.53;37.33;101290.88;4949524;28;45524;-62
2022/07/24 09:31:11;;;;;;;;;13.67;13.67;;;;;28.58;38.85;101283.41;4945169;28;45138;-61
2022/07/24 09:33:37;;;;;;;;;12.00;11.33;;;;;28.68;37.99;101291.22;4940677;28;45065;-63
2022/07/24 09:36:11;;;;;;;;;8.00;7.33;;;;;28.74;37.49;101276.34;4952063;28;44900;-64
2022/07/24 09:38:37;;;;;;;;;11.67;10.67;;;;;28.81;36.90;101271.47;4937038;28;45060;-63
2022/07/24 09:41:02;;;;;;;;;12.67;11.00;;;;;28.84;36.84;101272.22;4941031;28;45504;-63
2022/07/24 09:43:30;;;;;;;;;10.67;10.33;;;;;28.88;38.21;101269.34;4940463;28;45254;-65
2022/07/24 09:45:58;;;;;;;;;13.67;13.00;;;;;28.97;38.21;101266.19;4933259;28;45417;-63
2022/07/24 09:48:31;;;;;;;;;11.00;11.00;;;;;29.01;37.29;101255.00;4931374;28;45965;-64
2022/07/24 09:50:59;;;;;;;;;11.00;11.00;;;;;28.97;36.83;101245.09;4943071;28;45282;-63
2022/07/24 09:53:30;;;;;;;;;11.67;11.67;;;;;29.12;36.91;101256.38;4936775;28;45292;-64
2022/07/24 09:55:57;;;;;;;;;9.33;8.67;;;;;29.10;34.72;101253.72;4945383;28;45056;-61
2022/07/24 09:58:24;;;;;;;;;11.67;11.00;;;;;29.12;36.95;101254.56;4942090;28;45914;-64
2022/07/24 10:00:50;;;;;;;;;12.33;12.33;;;;;29.13;35.29;101250.81;4932185;28;45131;-64
2022/07/24 10:03:18;;;;;;;;;13.00;11.33;;;;;29.17;36.20;101257.09;4923269;28;45240;-64
2022/07/24 10:05:46;;;;;;;;;13.33;7.67;;;;;29.23;35.34;101249.50;4935844;28;45155;-64
2022/07/24 10:08:14;;;;;;;;;10.00;9.33;;;;;29.26;35.00;101248.47;4941808;28;45335;-61
2022/07/24 10:10:41;;;;;;;;;9.33;9.33;;;;;29.29;34.88;101247.47;4944402;28;45478;-63
2022/07/24 10:13:08;;;;;;;;;10.00;10.00;;;;;29.17;34.19;101224.06;4942048;28;45281;-62
2022/07/24 10:15:38;;;;;;;;;11.00;11.00;;;;;29.33;35.13;101238.09;4946272;28;45299;-61
2022/07/24 10:18:16;;;;;;;;;14.00;11.67;;;;;29.38;34.13;101241.53;4944708;28;45811;-64
2022/07/24 10:20:44;;;;;;;;;12.67;12.67;;;;;29.20;33.65;101219.38;4930041;28;45185;-62
2022/07/24 10:23:21;;;;;;;;;13.00;9.00;;;;;29.36;33.80;101233.34;4930313;28;44950;-63
2022/07/24 10:26:03;;;;;;;;;11.00;9.67;;;;;29.46;33.71;101241.19;4940251;28;45791;-65
2022/07/24 10:28:40;;;;;;;;;13.67;11.67;;;;;29.48;32.61;101240.16;4939287;28;46147;-62
2022/07/24 10:31:09;;;;;;;;;9.67;8.33;;;;;29.50;34.29;101240.06;4949652;28;45109;-61
2022/07/24 10:33:36;;;;;;;;;12.33;11.33;;;;;29.51;33.94;101237.25;4931779;28;45220;-63
2022/07/24 10:36:07;;;;;;;;;12.67;11.00;;;;;29.41;33.76;101205.59;4936534;28;45288;-62
2022/07/24 10:38:39;;;;;;;;;9.67;9.67;;;;;29.58;33.76;101226.84;4937917;28;45308;-63
2022/07/24 10:41:15;;;;;;;;;11.00;11.00;;;;;29.65;34.90;101228.38;4943953;28;45094;-62
2022/07/24 10:43:41;;;;;;;;;10.00;8.00;;;;;29.66;32.09;101229.28;4934896;28;45436;-63
2022/07/24 10:46:06;;;;;;;;;8.67;7.00;;;;;29.71;32.88;101229.94;4930917;28;45326;-63
2022/07/24 10:48:35;;;;;;;;;7.67;7.67;;;;;29.73;32.29;101230.75;4930494;28;46147;-62
2022/07/24 10:51:03;;;;;;;;;13.00;9.67;;;;;29.77;31.85;101222.31;4930674;28;45065;-63
2022/07/24 10:53:37;;;;;;;;;13.00;10.33;;;;;29.75;33.09;101218.72;4936149;28;45198;-63
2022/07/24 10:56:28;;;;;;;;;9.67;9.67;;;;;29.73;32.18;101215.16;4950382;28;45278;-62
2022/07/24 10:59:01;;;;;;;;;8.67;7.33;;;;;29.74;32.71;101216.03;4942900;28;45222;-62
2022/07/24 11:01:37;;;;;;;;;10.33;10.33;;;;;29.66;32.00;101193.47;4947998;28;46114;-63
2022/07/24 11:04:19;;;;;;;;;9.33;9.33;;;;;29.75;32.15;101207.72;4947036;28;45473;-63
2022/07/24 11:06:53;;;;;;;;;10.33;8.67;;;;;29.70;30.66;101196.00;4935528;28;45390;-66